KMVN/MVN METAR and TAF weather

Enter ICAO airport designator
Station Type Date Time Source
KMVN METAR 2019/08/22 21:19 UTC NOAA

KMVN 222119Z AUTO 00000KT 10SM SCT019 BKN030 26/22 A2997 RMK AO2


Station Type Date Time Source
KMVN Decoded METAR 2019/08/22 21:19 UTC NOAA

Station name not available
Aug 22, 2019 - 05:19 PM EDT / 2019.08.22 2119 UTC
Wind: Calm:0
Visibility: 10 mile(s):0
Sky conditions: mostly cloudy
Temperature: 78 F (26 C)
Dew Point: 71 F (22 C)
Relative Humidity: 78%
Pressure (altimeter): 29.97 in. Hg (1014 hPa)
ob: KMVN 222119Z AUTO 00000KT 10SM SCT019 BKN030 26/22 A2997 RMK AO2
cycle: 21

Station Type Date Time Source
KMVN TAF 2019/08/22 18:21 UTC NOAA

TAF KMVN 221720Z 2218/2318 VRB03KT P6SM VCSH SCT011 BKN100
TEMPO 2218/2222 SCT010 OVC021
FM230300 00000KT 6SM SHRA BR SCT013 BKN023 OVC120
FM230600 VRB03KT P6SM VCSH BKN019
FM231100 05005KT P6SM -DZ BKN006
FM231700 04003KT P6SM SCT019

Example: see airport list